createdAt,value
2018-08-30T00:02:24.496Z,30.52
2018-08-30T00:04:56.774Z,30.52
2018-08-30T00:07:28.735Z,30.52
2018-08-30T00:10:00.388Z,30.52
2018-08-30T00:12:32.162Z,30.51
2018-08-30T00:15:03.916Z,30.50
2018-08-30T00:17:35.695Z,30.51
2018-08-30T00:20:07.241Z,30.50
2018-08-30T00:22:39.056Z,30.49
2018-08-30T00:25:10.876Z,30.45
2018-08-30T00:27:42.968Z,30.48
2018-08-30T00:30:14.876Z,30.49
2018-08-30T00:32:46.655Z,30.48
2018-08-30T00:35:18.578Z,30.47
2018-08-30T00:37:50.232Z,30.45
2018-08-30T00:40:22.139Z,30.45
2018-08-30T00:42:54.197Z,30.44
2018-08-30T00:45:26.798Z,30.45
2018-08-30T00:47:58.620Z,30.45
2018-08-30T00:50:30.042Z,30.47
2018-08-30T00:53:02.065Z,30.43
2018-08-30T00:55:33.661Z,30.42
2018-08-30T00:58:05.637Z,30.42
2018-08-30T01:00:37.275Z,30.42
2018-08-30T01:03:09.093Z,30.45
2018-08-30T01:05:41.251Z,30.43
2018-08-30T01:08:13.062Z,30.44
2018-08-30T01:10:44.658Z,30.42
2018-08-30T01:13:16.592Z,30.40
2018-08-30T01:15:48.282Z,30.41
2018-08-30T01:18:21.036Z,30.41
2018-08-30T01:20:53.111Z,30.39
2018-08-30T01:23:25.210Z,30.38
2018-08-30T01:25:56.898Z,30.28
2018-08-30T01:28:28.690Z,30.31
2018-08-30T01:31:00.371Z,30.33
2018-08-30T01:33:32.069Z,30.38
2018-08-30T01:36:04.190Z,30.41
2018-08-30T01:38:36.053Z,30.32
2018-08-30T01:41:07.851Z,30.26
2018-08-30T01:43:39.757Z,30.25
2018-08-30T01:46:11.676Z,30.17
2018-08-30T01:48:43.560Z,30.19
2018-08-30T01:51:15.217Z,30.21
2018-08-30T01:53:46.811Z,30.21
2018-08-30T01:56:18.426Z,30.08
2018-08-30T01:58:50.216Z,29.99
2018-08-30T02:01:21.805Z,30.04
2018-08-30T02:03:53.423Z,30.04
2018-08-30T02:06:25.669Z,30.05
2018-08-30T02:08:57.660Z,30.00
2018-08-30T02:11:29.361Z,29.90
2018-08-30T02:14:00.818Z,29.86
2018-08-30T02:16:32.713Z,29.93
2018-08-30T02:19:04.583Z,29.94
2018-08-30T02:21:36.369Z,29.93
2018-08-30T02:24:07.999Z,29.87
2018-08-30T02:26:39.725Z,29.87
2018-08-30T02:29:11.266Z,29.83
2018-08-30T02:31:43.152Z,29.82
2018-08-30T02:34:15.242Z,29.79
2018-08-30T02:36:46.931Z,29.78
2018-08-30T02:39:18.943Z,29.75
2018-08-30T02:41:50.744Z,29.75
2018-08-30T02:44:22.531Z,29.79
2018-08-30T02:46:54.204Z,29.76
2018-08-30T02:49:25.726Z,29.80
2018-08-30T02:51:57.332Z,29.82
2018-08-30T02:54:29.006Z,29.84
2018-08-30T02:57:00.803Z,29.81
2018-08-30T02:59:32.425Z,29.87
2018-08-30T03:02:04.137Z,29.87
2018-08-30T03:04:35.935Z,29.92
2018-08-30T03:07:07.924Z,29.89
2018-08-30T03:09:39.443Z,29.86
2018-08-30T03:12:11.114Z,29.90
2018-08-30T03:14:42.886Z,29.95
2018-08-30T03:17:14.704Z,29.96
2018-08-30T03:19:46.596Z,29.99
2018-08-30T03:22:18.236Z,29.91
2018-08-30T03:24:51.014Z,29.90
2018-08-30T03:27:22.947Z,29.89
2018-08-30T03:29:54.989Z,29.92
2018-08-30T03:32:26.834Z,29.90
2018-08-30T03:34:59.260Z,29.93
2018-08-30T03:37:31.079Z,29.96
2018-08-30T03:40:02.889Z,29.95
2018-08-30T03:42:34.673Z,29.94
2018-08-30T03:45:06.712Z,29.88
2018-08-30T03:47:38.356Z,29.97
2018-08-30T03:50:10.343Z,30.02
2018-08-30T03:52:41.989Z,30.06
2018-08-30T03:55:13.794Z,30.09
2018-08-30T03:57:45.476Z,30.08
2018-08-30T04:00:17.231Z,30.08
2018-08-30T04:02:49.773Z,30.12
2018-08-30T04:05:22.287Z,30.15
2018-08-30T04:07:53.806Z,30.14
2018-08-30T04:10:26.202Z,30.17
2018-08-30T04:12:57.868Z,30.21
2018-08-30T04:15:29.820Z,30.22
2018-08-30T04:18:01.672Z,30.23
2018-08-30T04:20:33.474Z,30.24
2018-08-30T04:23:05.286Z,30.25
2018-08-30T04:25:36.955Z,30.25
2018-08-30T04:28:08.767Z,30.27
2018-08-30T04:30:40.764Z,30.30
2018-08-30T04:33:12.639Z,30.32
2018-08-30T04:35:44.720Z,30.31
2018-08-30T04:38:17.095Z,30.28
2018-08-30T04:40:48.877Z,30.24
2018-08-30T04:43:20.681Z,30.28
2018-08-30T04:45:52.576Z,30.29
2018-08-30T04:48:25.507Z,30.19
2018-08-30T04:50:56.992Z,30.22
2018-08-30T04:53:28.896Z,30.25
2018-08-30T04:56:01.449Z,30.21
2018-08-30T04:58:33.893Z,30.24
2018-08-30T05:01:06.237Z,30.37
2018-08-30T05:03:38.330Z,30.47
2018-08-30T05:06:10.059Z,30.47
2018-08-30T05:08:42.176Z,30.43
2018-08-30T05:11:14.062Z,30.42
2018-08-30T05:13:46.091Z,30.51
2018-08-30T05:16:17.963Z,30.57
2018-08-30T05:18:49.860Z,30.59
2018-08-30T05:21:21.816Z,30.54
2018-08-30T05:23:53.951Z,30.64
2018-08-30T05:26:25.969Z,30.56
2018-08-30T05:28:57.798Z,30.70
2018-08-30T05:31:29.784Z,30.62
2018-08-30T05:34:01.943Z,30.65
2018-08-30T05:36:33.703Z,30.74
2018-08-30T05:39:05.852Z,30.82
2018-08-30T05:41:37.967Z,30.87
2018-08-30T05:44:09.823Z,30.93
2018-08-30T05:46:41.806Z,30.89
2018-08-30T05:49:14.090Z,30.74
2018-08-30T05:51:46.309Z,30.60
2018-08-30T05:54:18.234Z,30.51
2018-08-30T05:56:50.232Z,30.45
2018-08-30T05:59:22.356Z,30.46
2018-08-30T06:01:54.329Z,30.44
2018-08-30T06:04:26.281Z,30.43
2018-08-30T06:06:58.067Z,30.37
2018-08-30T06:09:30.583Z,30.42
2018-08-30T06:12:02.739Z,30.47
2018-08-30T06:14:34.662Z,30.54
2018-08-30T06:17:06.227Z,30.56
2018-08-30T06:19:38.102Z,30.59
2018-08-30T06:22:10.110Z,30.67
2018-08-30T06:24:42.010Z,30.64
2018-08-30T06:27:13.818Z,30.67
2018-08-30T06:29:45.679Z,30.75
2018-08-30T06:32:17.706Z,30.70
2018-08-30T06:34:49.833Z,30.69
2018-08-30T06:37:21.827Z,30.68
2018-08-30T06:39:53.867Z,30.67
2018-08-30T06:42:25.655Z,30.72
2018-08-30T06:44:57.764Z,30.72
2018-08-30T06:47:29.886Z,30.73
2018-08-30T06:50:02.021Z,30.80
2018-08-30T06:52:34.709Z,30.82
2018-08-30T06:55:06.558Z,30.79
2018-08-30T06:57:38.254Z,30.82
2018-08-30T07:00:09.910Z,30.77
2018-08-30T07:02:41.856Z,30.77
2018-08-30T07:05:13.930Z,30.82
2018-08-30T07:07:46.489Z,30.82
2018-08-30T07:10:18.178Z,30.81
2018-08-30T07:12:51.078Z,30.81
2018-08-30T07:15:23.064Z,30.77
2018-08-30T07:17:55.332Z,30.80
2018-08-30T07:20:27.349Z,30.80
2018-08-30T07:22:59.337Z,30.82
2018-08-30T07:25:31.443Z,30.81
2018-08-30T07:28:03.310Z,30.88
2018-08-30T07:30:34.971Z,30.94
2018-08-30T07:33:07.654Z,30.94
2018-08-30T07:35:39.376Z,30.94
2018-08-30T07:38:11.832Z,30.92
2018-08-30T07:40:43.971Z,30.92
2018-08-30T07:43:15.949Z,30.92
2018-08-30T07:45:47.655Z,30.96
2018-08-30T07:48:19.843Z,30.97
2018-08-30T07:50:51.775Z,30.97
2018-08-30T07:53:23.777Z,31.00
2018-08-30T07:55:55.508Z,30.97
2018-08-30T07:58:27.651Z,30.97
2018-08-30T08:00:59.382Z,31.00
2018-08-30T08:03:31.262Z,31.02
2018-08-30T08:06:02.943Z,30.90
2018-08-30T08:08:35.118Z,30.97
2018-08-30T08:11:07.266Z,30.97
2018-08-30T08:13:39.004Z,30.99
2018-08-30T08:16:10.498Z,31.01
2018-08-30T08:18:42.488Z,31.04
2018-08-30T08:21:14.124Z,31.07
2018-08-30T08:23:46.017Z,31.07
2018-08-30T08:26:18.063Z,31.09
2018-08-30T08:28:49.902Z,31.08
2018-08-30T08:31:21.816Z,31.08
2018-08-30T08:33:54.490Z,31.06
2018-08-30T08:36:26.338Z,31.06
2018-08-30T08:38:58.059Z,31.10
2018-08-30T08:41:30.126Z,31.10
2018-08-30T08:44:02.038Z,31.06
2018-08-30T08:46:34.714Z,31.09
2018-08-30T08:49:06.950Z,31.10
2018-08-30T08:51:39.064Z,31.07
2018-08-30T08:54:12.215Z,31.07
2018-08-30T08:56:43.957Z,31.13
2018-08-30T08:59:16.214Z,31.14
2018-08-30T09:01:48.893Z,31.13
2018-08-30T09:04:21.258Z,31.12
2018-08-30T09:06:53.495Z,31.08
2018-08-30T09:09:27.133Z,31.15
2018-08-30T09:12:00.187Z,31.18
2018-08-30T09:14:32.103Z,31.18
2018-08-30T09:17:04.678Z,31.16
2018-08-30T09:19:36.979Z,31.17
2018-08-30T09:22:09.187Z,31.18
2018-08-30T09:24:41.817Z,31.19
2018-08-30T09:27:14.548Z,31.15
2018-08-30T09:29:47.012Z,31.19
2018-08-30T09:32:23.231Z,31.21
2018-08-30T09:34:56.901Z,31.24
2018-08-30T09:37:28.948Z,31.18
2018-08-30T09:40:01.409Z,31.28
2018-08-30T09:42:34.241Z,31.28
2018-08-30T09:45:07.293Z,31.23
2018-08-30T09:47:39.918Z,31.29
2018-08-30T09:50:11.956Z,31.28
2018-08-30T09:52:45.740Z,31.31
2018-08-30T09:55:17.606Z,31.28
2018-08-30T09:57:49.985Z,31.30
2018-08-30T10:00:26.622Z,31.34
2018-08-30T10:02:59.256Z,31.37
2018-08-30T10:05:32.070Z,31.36
2018-08-30T10:08:05.990Z,31.33
2018-08-30T10:10:38.357Z,31.31
2018-08-30T10:13:11.752Z,31.36
2018-08-30T10:15:44.280Z,31.45
2018-08-30T10:18:16.437Z,31.45
2018-08-30T10:20:49.398Z,31.45
2018-08-30T10:23:22.173Z,31.42
2018-08-30T10:25:54.779Z,31.37
2018-08-30T10:28:27.434Z,31.45
2018-08-30T10:31:01.299Z,31.48
2018-08-30T10:33:34.749Z,31.55
2018-08-30T10:36:07.624Z,31.56
2018-08-30T10:38:40.800Z,31.64
2018-08-30T10:41:13.565Z,31.57
2018-08-30T10:43:46.491Z,31.52
2018-08-30T10:46:19.393Z,31.63
2018-08-30T10:48:53.276Z,31.64
2018-08-30T10:51:25.441Z,31.70
2018-08-30T10:53:58.016Z,31.69
2018-08-30T10:56:30.198Z,31.64
2018-08-30T10:59:01.879Z,31.73
2018-08-30T11:01:34.428Z,31.76
2018-08-30T11:04:09.365Z,31.73
2018-08-30T11:06:43.421Z,31.72
2018-08-30T11:09:16.455Z,31.67
2018-08-30T11:11:50.506Z,31.68
2018-08-30T11:14:24.447Z,31.72
2018-08-30T11:16:57.584Z,31.74
2018-08-30T11:19:30.236Z,31.70
2018-08-30T11:22:03.923Z,31.53
2018-08-30T11:24:36.729Z,31.37
2018-08-30T11:27:09.732Z,31.62
2018-08-30T11:29:41.828Z,31.64
2018-08-30T11:32:16.105Z,31.61
2018-08-30T11:34:49.379Z,31.60
2018-08-30T11:37:22.885Z,31.63
2018-08-30T11:39:56.519Z,31.64
2018-08-30T11:42:30.249Z,31.63
2018-08-30T11:45:03.865Z,31.48
2018-08-30T11:47:37.000Z,31.56
2018-08-30T11:50:09.252Z,31.60
2018-08-30T11:52:42.245Z,31.65
2018-08-30T11:55:16.295Z,31.62
2018-08-30T11:57:50.876Z,31.61
2018-08-30T12:00:24.738Z,31.60
2018-08-30T12:03:01.778Z,31.59
2018-08-30T12:05:35.521Z,31.58
2018-08-30T12:08:07.942Z,31.60
2018-08-30T12:10:42.060Z,31.60
2018-08-30T12:13:14.104Z,31.59
2018-08-30T12:15:48.527Z,31.61
2018-08-30T12:18:21.309Z,31.61
2018-08-30T12:20:54.216Z,31.58
2018-08-30T12:23:26.640Z,31.59
2018-08-30T12:25:59.175Z,31.58
2018-08-30T12:28:33.091Z,31.59
2018-08-30T12:31:05.587Z,31.59
2018-08-30T12:33:38.987Z,31.57
2018-08-30T12:36:11.523Z,31.47
2018-08-30T12:38:44.469Z,31.48
2018-08-30T12:41:16.737Z,31.52
2018-08-30T12:43:49.594Z,31.55
2018-08-30T12:46:22.878Z,31.51
2018-08-30T12:48:55.936Z,31.52
2018-08-30T12:51:28.644Z,31.55
2018-08-30T12:54:01.218Z,31.55
2018-08-30T12:56:33.266Z,31.54
2018-08-30T12:59:10.837Z,31.57
2018-08-30T13:01:43.841Z,31.49
2018-08-30T13:04:17.859Z,31.45
2018-08-30T13:06:56.910Z,31.48
2018-08-30T13:09:29.961Z,31.49
2018-08-30T13:12:03.045Z,31.52
2018-08-30T13:14:36.902Z,31.54
2018-08-30T13:17:09.133Z,31.53
2018-08-30T13:19:42.066Z,31.56
2018-08-30T13:22:15.525Z,31.55
2018-08-30T13:24:48.196Z,31.53
2018-08-30T13:27:19.764Z,31.51
2018-08-30T13:29:51.772Z,31.50
2018-08-30T13:32:23.867Z,31.47
2018-08-30T13:34:56.103Z,31.50
2018-08-30T13:37:28.999Z,31.53
2018-08-30T13:40:01.427Z,31.44
2018-08-30T13:42:33.753Z,31.45
2018-08-30T13:45:05.633Z,31.51
2018-08-30T13:47:38.634Z,31.50
2018-08-30T13:50:10.681Z,31.50
2018-08-30T13:52:43.139Z,31.50
2018-08-30T13:55:15.523Z,31.49
2018-08-30T13:57:48.305Z,31.48
2018-08-30T14:00:21.103Z,31.49
2018-08-30T14:02:53.916Z,31.49
2018-08-30T14:05:26.957Z,31.50
2018-08-30T14:08:00.896Z,31.50
2018-08-30T14:10:34.605Z,31.51
2018-08-30T14:13:06.815Z,31.49
2018-08-30T14:15:39.232Z,31.51
2018-08-30T14:18:12.108Z,31.50
2018-08-30T14:20:45.308Z,31.51
2018-08-30T14:23:18.013Z,31.49
2018-08-30T14:25:51.481Z,31.48
2018-08-30T14:28:24.495Z,31.50
2018-08-30T14:30:58.776Z,31.51
2018-08-30T14:33:31.685Z,31.45
2018-08-30T14:36:03.752Z,31.47
2018-08-30T14:38:37.047Z,31.50
2018-08-30T14:41:10.010Z,31.50
2018-08-30T14:43:42.955Z,31.51
2018-08-30T14:46:14.481Z,31.52
2018-08-30T14:48:48.097Z,31.50
2018-08-30T14:51:21.174Z,31.51
2018-08-30T14:53:53.320Z,31.52
2018-08-30T14:56:26.047Z,31.53
2018-08-30T14:58:58.171Z,31.51
2018-08-30T15:01:30.285Z,31.52
2018-08-30T15:04:02.278Z,31.53
2018-08-30T15:06:35.015Z,31.53
2018-08-30T15:09:08.314Z,31.50
2018-08-30T15:11:40.677Z,31.52
2018-08-30T15:14:12.266Z,31.53
2018-08-30T15:16:44.673Z,31.53
2018-08-30T15:19:16.630Z,31.53
2018-08-30T15:21:49.374Z,31.54
2018-08-30T15:24:21.566Z,31.54
2018-08-30T15:26:53.404Z,31.54
2018-08-30T15:29:25.683Z,31.54
2018-08-30T15:31:58.789Z,31.54
2018-08-30T15:34:31.773Z,31.56
2018-08-30T15:37:04.139Z,31.55
2018-08-30T15:39:35.986Z,31.52
2018-08-30T15:42:08.025Z,31.52
2018-08-30T15:44:43.870Z,31.52
2018-08-30T15:47:21.527Z,31.53
2018-08-30T15:49:53.700Z,31.52
2018-08-30T15:52:25.679Z,31.54
2018-08-30T15:54:57.381Z,31.54
2018-08-30T15:57:29.138Z,31.54
2018-08-30T16:00:01.193Z,31.54
2018-08-30T16:02:33.258Z,31.54
2018-08-30T16:05:05.137Z,31.53
2018-08-30T16:07:36.980Z,31.53
2018-08-30T16:10:08.903Z,31.54
2018-08-30T16:12:40.674Z,31.53
2018-08-30T16:15:12.495Z,31.53
2018-08-30T16:17:44.314Z,31.54
2018-08-30T16:20:16.218Z,31.54
2018-08-30T16:23:54.732Z,31.53
2018-08-30T16:26:26.366Z,31.54
2018-08-30T16:28:57.892Z,31.54
2018-08-30T16:31:29.792Z,31.55
2018-08-30T16:34:01.998Z,31.56
2018-08-30T16:36:35.397Z,31.54
2018-08-30T16:39:08.946Z,31.56
2018-08-30T16:41:41.211Z,31.53
2018-08-30T16:44:13.439Z,31.52
2018-08-30T16:46:45.736Z,31.53
2018-08-30T16:49:18.052Z,31.53
2018-08-30T16:51:50.526Z,31.53
2018-08-30T16:54:23.787Z,31.52
2018-08-30T16:56:57.026Z,31.53
2018-08-30T16:59:29.608Z,31.52
2018-08-30T17:02:02.048Z,31.53
2018-08-30T17:04:34.446Z,31.53
2018-08-30T17:07:06.630Z,31.55
2018-08-30T17:09:41.068Z,31.53
2018-08-30T17:12:13.427Z,31.54
2018-08-30T17:14:45.772Z,31.53
2018-08-30T17:17:18.030Z,31.53
2018-08-30T17:19:52.333Z,31.52
2018-08-30T17:22:25.105Z,31.53
2018-08-30T17:24:57.306Z,31.52
2018-08-30T17:27:29.171Z,31.49
2018-08-30T17:30:01.252Z,31.40
2018-08-30T17:32:33.123Z,31.41
2018-08-30T17:35:04.733Z,31.41
2018-08-30T17:37:36.520Z,31.46
2018-08-30T17:40:08.598Z,31.48
2018-08-30T17:42:41.007Z,31.50
2018-08-30T17:45:13.249Z,31.49
2018-08-30T17:47:46.127Z,31.50
2018-08-30T17:50:19.123Z,31.42
2018-08-30T17:52:51.047Z,31.43
2018-08-30T17:55:23.535Z,31.45
2018-08-30T17:57:55.689Z,31.46
2018-08-30T18:00:27.873Z,31.48
2018-08-30T18:03:02.148Z,31.48
2018-08-30T18:05:34.491Z,31.48
2018-08-30T18:08:07.081Z,31.50
2018-08-30T18:10:39.652Z,31.48
2018-08-30T18:13:12.358Z,31.48
2018-08-30T18:15:44.397Z,31.48
2018-08-30T18:18:16.310Z,31.48
2018-08-30T18:20:49.160Z,31.49
2018-08-30T18:23:21.337Z,31.50
2018-08-30T18:25:53.594Z,31.48
2018-08-30T18:28:26.077Z,31.48
2018-08-30T18:30:57.960Z,31.48
2018-08-30T18:33:29.788Z,31.48
2018-08-30T18:36:01.887Z,31.47
2018-08-30T18:38:34.232Z,31.48
2018-08-30T18:41:06.336Z,31.44
2018-08-30T18:43:38.621Z,31.42
2018-08-30T18:46:11.179Z,31.46
2018-08-30T18:48:43.008Z,31.47
2018-08-30T18:51:15.285Z,31.48
2018-08-30T18:53:46.875Z,31.47
2018-08-30T18:56:19.824Z,31.47
2018-08-30T18:58:51.893Z,31.48
2018-08-30T19:01:24.102Z,31.48
2018-08-30T19:03:56.607Z,31.48
2018-08-30T19:06:28.872Z,31.47
2018-08-30T19:09:00.458Z,31.47
2018-08-30T19:11:32.426Z,31.47
2018-08-30T19:14:04.349Z,31.47
2018-08-30T19:16:40.699Z,31.47
2018-08-30T19:19:21.247Z,31.46
2018-08-30T19:21:53.326Z,31.49
2018-08-30T19:24:29.532Z,31.49
2018-08-30T19:27:01.275Z,31.47
2018-08-30T19:29:37.085Z,31.47
2018-08-30T19:32:09.015Z,31.47
2018-08-30T19:34:41.025Z,31.47
2018-08-30T19:37:13.420Z,31.48
2018-08-30T19:39:45.349Z,31.47
2018-08-30T19:42:17.221Z,31.48
2018-08-30T19:44:50.148Z,31.46
2018-08-30T19:47:21.994Z,31.47
2018-08-30T19:49:53.683Z,31.46
2018-08-30T19:52:25.558Z,31.46
2018-08-30T19:54:57.400Z,31.47
2018-08-30T19:57:29.281Z,31.47
2018-08-30T20:00:01.204Z,31.47
2018-08-30T20:02:33.143Z,31.46
2018-08-30T20:05:05.056Z,31.46
2018-08-30T20:07:37.139Z,31.47
2018-08-30T20:10:09.048Z,31.46
2018-08-30T20:12:40.740Z,31.47
2018-08-30T20:15:12.766Z,31.47
2018-08-30T20:17:45.252Z,31.47
2018-08-30T20:20:17.913Z,31.45
2018-08-30T20:22:50.284Z,31.46
2018-08-30T20:25:22.595Z,31.46
2018-08-30T20:27:54.687Z,31.43
2018-08-30T20:30:26.875Z,31.46
2018-08-30T20:32:59.363Z,31.46
2018-08-30T20:35:31.274Z,31.46
2018-08-30T20:38:03.735Z,31.47
2018-08-30T20:40:35.613Z,31.46
2018-08-30T20:43:07.743Z,31.39
2018-08-30T20:45:39.916Z,31.46
2018-08-30T20:48:12.118Z,31.45
2018-08-30T20:50:44.388Z,31.41
2018-08-30T20:53:16.837Z,31.43
2018-08-30T20:55:48.652Z,31.45
2018-08-30T20:58:21.740Z,31.45
2018-08-30T21:00:53.943Z,31.46
2018-08-30T21:03:26.009Z,31.45
2018-08-30T21:05:57.671Z,31.43
2018-08-30T21:08:29.355Z,31.43
2018-08-30T21:11:01.424Z,31.45
2018-08-30T21:13:33.936Z,31.43
2018-08-30T21:16:06.091Z,31.41
2018-08-30T21:18:37.988Z,31.43
2018-08-30T21:21:09.610Z,31.43
2018-08-30T21:23:41.667Z,31.42
2018-08-30T21:26:13.317Z,31.40
2018-08-30T21:28:45.219Z,31.41
2018-08-30T21:31:17.058Z,31.40
2018-08-30T21:33:48.895Z,31.38
2018-08-30T21:36:21.940Z,31.41
2018-08-30T21:38:53.968Z,31.41
2018-08-30T21:41:25.856Z,31.39
2018-08-30T21:43:57.547Z,31.40
2018-08-30T21:46:29.999Z,31.43
2018-08-30T21:49:02.167Z,31.38
2018-08-30T21:51:34.216Z,31.41
2018-08-30T21:54:06.073Z,31.38
2018-08-30T21:56:37.799Z,31.40
2018-08-30T21:59:09.534Z,31.40
2018-08-30T22:01:41.716Z,31.40
2018-08-30T22:04:13.516Z,31.40
2018-08-30T22:06:45.387Z,31.40
2018-08-30T22:09:17.016Z,31.39
2018-08-30T22:11:48.903Z,31.38
2018-08-30T22:14:20.616Z,31.37
2018-08-30T22:16:52.504Z,31.38
2018-08-30T22:19:24.407Z,31.38
2018-08-30T22:21:56.379Z,31.37
2018-08-30T22:24:28.414Z,31.37
2018-08-30T22:27:00.231Z,31.35
2018-08-30T22:29:31.920Z,31.36
2018-08-30T22:32:03.915Z,31.37
2018-08-30T22:34:35.500Z,31.35
2018-08-30T22:37:07.175Z,31.37
2018-08-30T22:39:38.780Z,31.38
2018-08-30T22:42:10.819Z,31.36
2018-08-30T22:44:42.507Z,31.35
2018-08-30T22:47:14.368Z,31.35
2018-08-30T22:49:46.124Z,31.35
2018-08-30T22:52:18.092Z,31.35
2018-08-30T22:54:49.962Z,31.36
2018-08-30T22:57:21.825Z,31.33
2018-08-30T22:59:53.809Z,31.33
2018-08-30T23:02:25.854Z,31.32
2018-08-30T23:04:58.043Z,31.32
2018-08-30T23:07:29.970Z,31.30
2018-08-30T23:10:01.883Z,31.32
2018-08-30T23:12:33.589Z,31.32
2018-08-30T23:15:05.687Z,31.32
2018-08-30T23:17:38.091Z,31.31
2018-08-30T23:20:11.679Z,31.32
2018-08-30T23:22:43.813Z,31.34
2018-08-30T23:25:16.034Z,31.31
2018-08-30T23:27:47.820Z,31.34
2018-08-30T23:30:19.896Z,31.33
2018-08-30T23:32:52.014Z,31.31
2018-08-30T23:35:24.484Z,31.31
2018-08-30T23:37:56.311Z,31.31
2018-08-30T23:40:28.385Z,31.28
2018-08-30T23:43:00.328Z,31.32
2018-08-30T23:45:32.154Z,31.30
2018-08-30T23:48:04.442Z,31.30
2018-08-30T23:50:36.438Z,31.30
2018-08-30T23:53:08.772Z,31.28
2018-08-30T23:55:40.849Z,31.30
2018-08-30T23:58:22.236Z,31.31
